createdAt,value
2022-12-27T00:02:10.845Z,52.9
2022-12-27T00:07:02.701Z,52.8
2022-12-27T00:12:14.559Z,52.8
2022-12-27T00:17:21.909Z,52.8
2022-12-27T00:22:46.597Z,52.7
2022-12-27T00:28:09.332Z,52.7
2022-12-27T00:33:15.418Z,52.6
2022-12-27T00:38:07.145Z,52.6
2022-12-27T00:43:29.653Z,52.6
2022-12-27T00:48:51.745Z,52.5
2022-12-27T00:54:13.923Z,52.4
2022-12-27T01:09:04.892Z,52.3
2022-12-27T01:14:27.111Z,52.3
2022-12-27T01:19:49.681Z,52.3
2022-12-27T01:25:12.088Z,52.2
2022-12-27T01:30:19.039Z,52.1
2022-12-27T01:35:42.099Z,52.1
2022-12-27T01:41:05.036Z,52.1
2022-12-27T01:46:26.843Z,52
2022-12-27T02:01:48.046Z,51.9
2022-12-27T02:07:11.103Z,51.8
2022-12-27T02:12:34.225Z,51.8
2022-12-27T02:17:57.343Z,51.8
2022-12-27T02:23:18.793Z,51.7
2022-12-27T02:28:46.879Z,51.6
2022-12-27T02:34:10.131Z,51.6
2022-12-27T02:39:17.108Z,51.6
2022-12-27T02:44:39.745Z,51.5
2022-12-27T02:50:04.513Z,51.5
2022-12-27T02:55:27.572Z,51.4
2022-12-27T03:00:49.849Z,51.4
2022-12-27T03:06:19.115Z,51.4
2022-12-27T03:11:26.193Z,51.3
2022-12-27T03:16:54.067Z,51.3
2022-12-27T03:22:16.285Z,51.2
2022-12-27T03:27:38.466Z,51.2
2022-12-27T03:33:01.157Z,51.1
2022-12-27T03:38:08.490Z,51.1
2022-12-27T03:43:16.061Z,51.1
2022-12-27T03:48:39.374Z,51
2022-12-27T03:54:01.214Z,50.9
2022-12-27T03:59:30.542Z,50.9
2022-12-27T04:04:23.461Z,50.9
2022-12-27T04:09:45.899Z,50.8
2022-12-27T04:15:08.175Z,50.8
2022-12-27T04:20:31.081Z,50.8
2022-12-27T04:25:37.489Z,50.7
2022-12-27T04:30:44.463Z,50.7
2022-12-27T04:35:52.329Z,50.6
2022-12-27T04:41:14.874Z,50.6
2022-12-27T04:46:39.303Z,50.6
2022-12-27T04:52:02.136Z,50.5
2022-12-27T04:57:25.005Z,50.4
2022-12-27T05:02:38.342Z,50.4
2022-12-27T05:08:01.293Z,50.4
2022-12-27T05:13:08.448Z,50.3
2022-12-27T05:18:31.387Z,50.3
2022-12-27T05:23:54.910Z,50.3
2022-12-27T05:29:02.675Z,50.2
2022-12-27T05:34:30.722Z,50.1
2022-12-27T05:39:56.847Z,50.1
2022-12-27T05:45:19.592Z,50
2022-12-27T05:50:41.447Z,49.9
2022-12-27T05:56:07.399Z,49.9
2022-12-27T06:01:30.283Z,49.8
2022-12-27T06:06:53.285Z,49.8
2022-12-27T06:12:16.180Z,49.8
2022-12-27T06:17:39.171Z,49.7
2022-12-27T06:23:06.608Z,49.6
2022-12-27T06:28:29.279Z,49.6
2022-12-27T06:33:51.790Z,49.5
2022-12-27T06:39:15.055Z,49.5
2022-12-27T06:44:22.410Z,49.4
2022-12-27T06:49:30.888Z,49.4
2022-12-27T06:54:53.453Z,49.4
2022-12-27T07:00:16.548Z,49.3
2022-12-27T07:05:40.884Z,49.3
2022-12-27T07:11:03.321Z,49.1
2022-12-27T07:16:26.002Z,48.3
2022-12-27T07:21:48.345Z,47.3
2022-12-27T07:27:15.741Z,45.5
2022-12-27T07:32:39.171Z,44.9
2022-12-27T07:38:03.689Z,44.9
2022-12-27T07:43:31.907Z,44.8
2022-12-27T07:48:54.800Z,44.7
2022-12-27T07:54:24.229Z,44.7
2022-12-27T07:59:51.580Z,44.6
2022-12-27T08:05:15.715Z,44.6
2022-12-27T08:10:38.545Z,44.5
2022-12-27T08:15:45.344Z,44.4
2022-12-27T08:20:53.172Z,44.4
2022-12-27T08:26:21.958Z,44.3
2022-12-27T08:31:29.563Z,44.3
2022-12-27T08:38:02.171Z,44.2
2022-12-27T08:43:28.501Z,44.1
2022-12-27T08:48:52.023Z,44.1
2022-12-27T08:54:31.294Z,44
2022-12-27T08:59:56.542Z,43.9
2022-12-27T09:05:04.566Z,43.9
2022-12-27T09:10:31.563Z,43.8
2022-12-27T09:15:54.043Z,43.8
2022-12-27T09:21:16.285Z,43.7
2022-12-27T09:26:24.262Z,43.6
2022-12-27T09:31:50.859Z,43.6
2022-12-27T09:37:02.916Z,43.6
2022-12-27T09:43:53.727Z,43.5
2022-12-27T09:49:06.022Z,43.4
2022-12-27T09:54:28.722Z,43.3
2022-12-27T10:00:34.979Z,43.1
2022-12-27T10:06:46.316Z,41.8
2022-12-27T10:12:08.773Z,41.3
2022-12-27T10:17:36.376Z,41.9
2022-12-27T10:23:04.386Z,42.7
2022-12-27T10:28:13.287Z,43.3
2022-12-27T10:33:36.790Z,43.9
2022-12-27T10:39:00.701Z,44.6
2022-12-27T10:44:23.150Z,45.3
2022-12-27T10:50:25.246Z,45.9
2022-12-27T10:55:48.988Z,46.5
2022-12-27T11:01:17.718Z,47.1
2022-12-27T11:06:41.025Z,47.6
2022-12-27T11:12:08.589Z,48.1
2022-12-27T11:17:36.728Z,48.6
2022-12-27T11:23:07.358Z,49.1
2022-12-27T11:28:34.080Z,49.6
2022-12-27T11:33:58.403Z,50.1
2022-12-27T11:39:20.911Z,50.6
2022-12-27T11:44:45.751Z,50.9
2022-12-27T11:49:44.198Z,51
2022-12-27T11:55:07.043Z,50.9
2022-12-27T12:00:29.975Z,50.9
2022-12-27T12:05:56.073Z,50.9
2022-12-27T12:11:24.304Z,50.9
2022-12-27T12:16:31.387Z,50.9
2022-12-27T12:21:57.168Z,50.9
2022-12-27T12:27:23.500Z,50.9
2022-12-27T12:33:20.792Z,50.8
2022-12-27T12:38:43.495Z,50.8
2022-12-27T12:44:05.908Z,50.8
2022-12-27T12:49:15.659Z,50.8
2022-12-27T12:54:45.825Z,50.8
2022-12-27T13:00:12.394Z,50.7
2022-12-27T13:05:36.671Z,50.6
2022-12-27T13:11:05.721Z,50.6
2022-12-27T13:16:36.016Z,50.6
2022-12-27T13:21:43.003Z,50.6
2022-12-27T13:27:05.635Z,50.6
2022-12-27T13:32:28.654Z,50.5
2022-12-27T13:37:55.163Z,50.5
2022-12-27T13:43:18.049Z,50.4
2022-12-27T13:48:44.195Z,50.4
2022-12-27T13:54:06.457Z,50.4
2022-12-27T14:00:06.001Z,50.3
2022-12-27T14:05:32.944Z,50.3
2022-12-27T14:10:40.322Z,50.3
2022-12-27T14:16:07.579Z,50.3
2022-12-27T14:21:33.170Z,50.2
2022-12-27T14:26:55.904Z,50.2
2022-12-27T14:32:25.512Z,50.1
2022-12-27T14:37:50.930Z,50.1
2022-12-27T14:42:58.187Z,50.1
2022-12-27T14:48:20.864Z,50.1
2022-12-27T14:54:20.744Z,50
2022-12-27T14:59:49.564Z,49.9
2022-12-27T15:05:21.118Z,49.9
2022-12-27T15:10:50.322Z,49.9
2022-12-27T15:16:15.415Z,49.9
2022-12-27T15:21:41.520Z,49.8
2022-12-27T15:27:05.628Z,49.8
2022-12-27T15:32:29.848Z,49.8
2022-12-27T15:37:58.924Z,49.8
2022-12-27T15:43:32.821Z,49.7
2022-12-27T15:48:55.123Z,49.7
2022-12-27T15:54:17.878Z,49.6
2022-12-27T15:59:43.988Z,49.6
2022-12-27T16:05:10.376Z,49.6
2022-12-27T16:09:38.341Z,49.6
2022-12-27T16:14:50.566Z,49.5
2022-12-27T16:19:42.331Z,49.4
2022-12-27T16:25:04.790Z,49.4
2022-12-27T16:30:33.547Z,49.4
2022-12-27T16:36:01.587Z,49.4
2022-12-27T16:41:28.084Z,49.3
2022-12-27T16:46:56.742Z,49.3
2022-12-27T16:52:05.108Z,49.3
2022-12-27T16:57:32.132Z,49.3
2022-12-27T17:02:56.292Z,49.2
2022-12-27T17:09:05.074Z,49.2
2022-12-27T17:14:28.365Z,49.1
2022-12-27T17:19:52.094Z,49.1
2022-12-27T17:25:18.315Z,49.1
2022-12-27T17:30:31.412Z,49
2022-12-27T17:36:01.560Z,49
2022-12-27T17:40:37.077Z,48.9
2022-12-27T17:45:49.113Z,48.9
2022-12-27T17:51:00.798Z,48.9
2022-12-27T17:56:24.125Z,48.9
2022-12-27T18:01:34.842Z,48.8
2022-12-27T18:07:05.957Z,48.8
2022-12-27T18:12:17.400Z,48.8
2022-12-27T18:17:28.663Z,48.7
2022-12-27T18:22:37.786Z,48.7
2022-12-27T18:27:59.535Z,48.6
2022-12-27T18:33:23.585Z,48.6
2022-12-27T18:38:50.507Z,48.6
2022-12-27T18:44:13.391Z,48.6
2022-12-27T18:49:36.233Z,48.5
2022-12-27T18:54:59.234Z,48.5
2022-12-27T19:00:22.992Z,48.4
2022-12-27T19:05:37.066Z,48.4
2022-12-27T19:11:00.055Z,48.4
2022-12-27T19:16:26.118Z,48.4
2022-12-27T19:21:48.095Z,48.3
2022-12-27T19:27:11.222Z,48.3
2022-12-27T19:32:34.539Z,48.3
2022-12-27T19:37:57.580Z,48.2
2022-12-27T19:43:24.839Z,48.2
2022-12-27T19:49:15.841Z,48.1
2022-12-27T19:54:47.000Z,48.1
2022-12-27T20:00:12.649Z,48.1
2022-12-27T20:06:31.722Z,48.1
2022-12-27T20:11:39.353Z,48
2022-12-27T20:17:02.712Z,47.9
2022-12-27T20:22:30.045Z,47.9
2022-12-27T20:27:52.505Z,47.9
2022-12-27T20:33:24.428Z,47.9
2022-12-27T20:38:31.925Z,47.8
2022-12-27T20:43:54.300Z,47.8
2022-12-27T20:49:17.723Z,47.8
2022-12-27T20:54:45.372Z,47.7
2022-12-27T21:00:08.069Z,47.7
2022-12-27T21:05:41.259Z,47.7
2022-12-27T21:11:08.467Z,47.6
2022-12-27T21:16:32.457Z,47.6
2022-12-27T21:22:00.355Z,47.6
2022-12-27T21:27:29.059Z,47.5
2022-12-27T21:32:51.465Z,47.5
2022-12-27T21:38:03.193Z,47.4
2022-12-27T21:43:25.380Z,47.4
2022-12-27T21:48:50.056Z,47.4
2022-12-27T21:54:19.991Z,47.4
2022-12-27T21:59:26.630Z,47.3
2022-12-27T22:05:03.683Z,47.3
2022-12-27T22:10:30.117Z,47.3
2022-12-27T22:15:42.555Z,47.3
2022-12-27T22:21:05.320Z,47.2
2022-12-27T22:26:28.177Z,47.2
2022-12-27T22:31:37.276Z,47.1
2022-12-27T22:36:44.450Z,47.1
2022-12-27T22:42:38.317Z,47.1
2022-12-27T22:48:29.952Z,47.1
2022-12-27T22:53:36.596Z,47
2022-12-27T22:59:38.494Z,46.9
2022-12-27T23:05:02.693Z,46.9
2022-12-27T23:10:46.760Z,46.9
2022-12-27T23:16:10.199Z,46.8
2022-12-27T23:21:40.020Z,46.8
2022-12-27T23:27:02.757Z,46.8
2022-12-27T23:32:44.241Z,46.8
2022-12-27T23:38:10.973Z,46.8
2022-12-27T23:43:33.070Z,46.7
2022-12-27T23:53:47.171Z,46.6
2022-12-27T23:59:21.877Z,46.6
